sensor_id;sensor_type;location;lat;lon;timestamp;P1;durP1;ratioP1;P2;durP2;ratioP2
66794;SDS011;53698;52.738;4.752;2022-07-25T00:01:57;7.30;;;3.92;;
66794;SDS011;53698;52.738;4.752;2022-07-25T00:04:22;8.35;;;3.85;;
66794;SDS011;53698;52.738;4.752;2022-07-25T00:06:48;5.95;;;3.97;;
66794;SDS011;53698;52.738;4.752;2022-07-25T00:09:13;8.88;;;3.83;;
66794;SDS011;53698;52.738;4.752;2022-07-25T00:11:38;8.90;;;4.35;;
66794;SDS011;53698;52.738;4.752;2022-07-25T00:14:04;6.22;;;3.75;;
66794;SDS011;53698;52.738;4.752;2022-07-25T00:16:30;7.70;;;4.30;;
66794;SDS011;53698;52.738;4.752;2022-07-25T00:18:56;8.57;;;4.38;;
66794;SDS011;53698;52.738;4.752;2022-07-25T00:21:22;7.68;;;4.15;;
66794;SDS011;53698;52.738;4.752;2022-07-25T00:23:47;5.28;;;4.00;;
66794;SDS011;53698;52.738;4.752;2022-07-25T00:26:12;6.03;;;3.72;;
66794;SDS011;53698;52.738;4.752;2022-07-25T00:28:38;5.15;;;3.72;;
66794;SDS011;53698;52.738;4.752;2022-07-25T00:31:03;5.93;;;3.92;;
66794;SDS011;53698;52.738;4.752;2022-07-25T00:33:29;5.05;;;3.72;;
66794;SDS011;53698;52.738;4.752;2022-07-25T00:35:54;7.13;;;3.90;;
66794;SDS011;53698;52.738;4.752;2022-07-25T00:38:20;7.97;;;4.18;;
66794;SDS011;53698;52.738;4.752;2022-07-25T00:40:45;8.23;;;4.47;;
66794;SDS011;53698;52.738;4.752;2022-07-25T00:43:11;6.93;;;4.43;;
66794;SDS011;53698;52.738;4.752;2022-07-25T00:45:36;5.38;;;3.83;;
66794;SDS011;53698;52.738;4.752;2022-07-25T00:48:01;4.93;;;3.75;;
66794;SDS011;53698;52.738;4.752;2022-07-25T00:50:27;6.40;;;4.10;;
66794;SDS011;53698;52.738;4.752;2022-07-25T00:52:53;6.18;;;4.03;;
66794;SDS011;53698;52.738;4.752;2022-07-25T00:55:19;8.10;;;3.83;;
66794;SDS011;53698;52.738;4.752;2022-07-25T00:57:45;6.50;;;3.70;;
66794;SDS011;53698;52.738;4.752;2022-07-25T01:00:11;6.85;;;4.00;;
66794;SDS011;53698;52.738;4.752;2022-07-25T01:02:38;4.18;;;3.47;;
66794;SDS011;53698;52.738;4.752;2022-07-25T01:05:04;5.53;;;3.53;;
66794;SDS011;53698;52.738;4.752;2022-07-25T01:07:30;6.78;;;4.15;;
66794;SDS011;53698;52.738;4.752;2022-07-25T01:09:56;6.80;;;3.78;;
66794;SDS011;53698;52.738;4.752;2022-07-25T01:12:23;6.05;;;3.65;;
66794;SDS011;53698;52.738;4.752;2022-07-25T01:14:48;5.85;;;4.03;;
66794;SDS011;53698;52.738;4.752;2022-07-25T01:17:13;8.05;;;3.88;;
66794;SDS011;53698;52.738;4.752;2022-07-25T01:19:39;7.18;;;4.45;;
66794;SDS011;53698;52.738;4.752;2022-07-25T01:22:04;6.38;;;4.45;;
66794;SDS011;53698;52.738;4.752;2022-07-25T01:24:31;7.72;;;3.90;;
66794;SDS011;53698;52.738;4.752;2022-07-25T01:26:58;4.65;;;3.72;;
66794;SDS011;53698;52.738;4.752;2022-07-25T01:29:23;6.72;;;4.38;;
66794;SDS011;53698;52.738;4.752;2022-07-25T01:31:48;5.43;;;3.70;;
66794;SDS011;53698;52.738;4.752;2022-07-25T01:34:14;5.40;;;4.35;;
66794;SDS011;53698;52.738;4.752;2022-07-25T01:36:39;5.15;;;4.05;;
66794;SDS011;53698;52.738;4.752;2022-07-25T01:39:05;8.43;;;4.63;;
66794;SDS011;53698;52.738;4.752;2022-07-25T01:41:30;14.05;;;4.68;;
66794;SDS011;53698;52.738;4.752;2022-07-25T01:43:56;9.07;;;4.28;;
66794;SDS011;53698;52.738;4.752;2022-07-25T01:46:21;6.78;;;4.40;;
66794;SDS011;53698;52.738;4.752;2022-07-25T01:48:46;5.38;;;3.72;;
66794;SDS011;53698;52.738;4.752;2022-07-25T01:51:12;6.90;;;3.88;;
66794;SDS011;53698;52.738;4.752;2022-07-25T01:53:37;7.78;;;3.97;;
66794;SDS011;53698;52.738;4.752;2022-07-25T01:56:04;5.53;;;4.00;;
66794;SDS011;53698;52.738;4.752;2022-07-25T01:58:30;8.05;;;3.78;;
66794;SDS011;53698;52.738;4.752;2022-07-25T02:00:56;7.10;;;3.50;;
66794;SDS011;53698;52.738;4.752;2022-07-25T02:03:21;5.07;;;3.33;;
66794;SDS011;53698;52.738;4.752;2022-07-25T02:05:56;5.03;;;3.30;;
66794;SDS011;53698;52.738;4.752;2022-07-25T02:08:23;5.00;;;3.20;;
66794;SDS011;53698;52.738;4.752;2022-07-25T02:10:49;6.45;;;3.20;;
66794;SDS011;53698;52.738;4.752;2022-07-25T02:13:14;6.10;;;3.08;;
66794;SDS011;53698;52.738;4.752;2022-07-25T02:15:39;5.90;;;3.22;;
66794;SDS011;53698;52.738;4.752;2022-07-25T02:18:05;4.07;;;3.13;;
66794;SDS011;53698;52.738;4.752;2022-07-25T02:20:30;10.85;;;2.97;;
66794;SDS011;53698;52.738;4.752;2022-07-25T02:22:55;5.07;;;2.92;;
66794;SDS011;53698;52.738;4.752;2022-07-25T02:25:21;6.40;;;3.10;;
66794;SDS011;53698;52.738;4.752;2022-07-25T02:27:46;4.85;;;3.40;;
66794;SDS011;53698;52.738;4.752;2022-07-25T02:30:12;4.20;;;2.97;;
66794;SDS011;53698;52.738;4.752;2022-07-25T02:32:38;5.50;;;3.00;;
66794;SDS011;53698;52.738;4.752;2022-07-25T02:35:04;7.68;;;3.22;;
66794;SDS011;53698;52.738;4.752;2022-07-25T02:37:30;4.25;;;2.90;;
66794;SDS011;53698;52.738;4.752;2022-07-25T02:39:55;4.72;;;2.90;;
66794;SDS011;53698;52.738;4.752;2022-07-25T02:42:21;4.28;;;3.35;;
66794;SDS011;53698;52.738;4.752;2022-07-25T02:44:46;4.10;;;2.97;;
66794;SDS011;53698;52.738;4.752;2022-07-25T02:47:11;5.57;;;3.45;;
66794;SDS011;53698;52.738;4.752;2022-07-25T02:49:37;8.27;;;3.55;;
66794;SDS011;53698;52.738;4.752;2022-07-25T02:52:02;5.43;;;3.42;;
66794;SDS011;53698;52.738;4.752;2022-07-25T02:54:28;3.78;;;3.03;;
66794;SDS011;53698;52.738;4.752;2022-07-25T02:56:53;5.90;;;3.63;;
66794;SDS011;53698;52.738;4.752;2022-07-25T02:59:19;6.40;;;3.80;;
66794;SDS011;53698;52.738;4.752;2022-07-25T03:01:44;4.43;;;3.58;;
66794;SDS011;53698;52.738;4.752;2022-07-25T03:04:09;6.28;;;3.90;;
66794;SDS011;53698;52.738;4.752;2022-07-25T03:06:35;6.45;;;3.45;;
66794;SDS011;53698;52.738;4.752;2022-07-25T03:09:00;4.05;;;3.60;;
66794;SDS011;53698;52.738;4.752;2022-07-25T03:11:25;7.38;;;4.05;;
66794;SDS011;53698;52.738;4.752;2022-07-25T03:13:51;5.70;;;3.50;;
66794;SDS011;53698;52.738;4.752;2022-07-25T03:16:16;4.35;;;3.78;;
66794;SDS011;53698;52.738;4.752;2022-07-25T03:18:42;7.25;;;3.78;;
66794;SDS011;53698;52.738;4.752;2022-07-25T03:21:07;5.95;;;3.60;;
66794;SDS011;53698;52.738;4.752;2022-07-25T03:23:32;5.68;;;3.55;;
66794;SDS011;53698;52.738;4.752;2022-07-25T03:25:58;3.58;;;3.17;;
66794;SDS011;53698;52.738;4.752;2022-07-25T03:28:23;4.07;;;3.25;;
66794;SDS011;53698;52.738;4.752;2022-07-25T03:30:49;4.65;;;3.50;;
66794;SDS011;53698;52.738;4.752;2022-07-25T03:33:15;6.82;;;4.00;;
66794;SDS011;53698;52.738;4.752;2022-07-25T03:35:40;3.72;;;2.97;;
66794;SDS011;53698;52.738;4.752;2022-07-25T03:38:05;5.55;;;3.65;;
66794;SDS011;53698;52.738;4.752;2022-07-25T03:40:31;8.60;;;3.55;;
66794;SDS011;53698;52.738;4.752;2022-07-25T03:42:57;5.78;;;3.33;;
66794;SDS011;53698;52.738;4.752;2022-07-25T03:45:22;5.85;;;3.58;;
66794;SDS011;53698;52.738;4.752;2022-07-25T03:47:48;5.22;;;3.72;;
66794;SDS011;53698;52.738;4.752;2022-07-25T03:50:13;6.72;;;3.70;;
66794;SDS011;53698;52.738;4.752;2022-07-25T03:52:38;6.03;;;3.88;;
66794;SDS011;53698;52.738;4.752;2022-07-25T03:55:05;8.18;;;3.60;;
66794;SDS011;53698;52.738;4.752;2022-07-25T03:57:31;4.80;;;3.60;;
66794;SDS011;53698;52.738;4.752;2022-07-25T03:59:57;6.93;;;3.03;;
66794;SDS011;53698;52.738;4.752;2022-07-25T04:02:22;4.78;;;3.30;;
66794;SDS011;53698;52.738;4.752;2022-07-25T04:04:47;8.90;;;3.65;;
66794;SDS011;53698;52.738;4.752;2022-07-25T04:07:13;4.28;;;3.33;;
66794;SDS011;53698;52.738;4.752;2022-07-25T04:09:38;4.00;;;3.47;;
66794;SDS011;53698;52.738;4.752;2022-07-25T04:12:04;5.45;;;3.40;;
66794;SDS011;53698;52.738;4.752;2022-07-25T04:14:29;5.55;;;3.13;;
66794;SDS011;53698;52.738;4.752;2022-07-25T04:16:55;5.75;;;3.25;;
66794;SDS011;53698;52.738;4.752;2022-07-25T04:19:20;7.70;;;3.40;;
66794;SDS011;53698;52.738;4.752;2022-07-25T04:21:45;6.57;;;3.38;;
66794;SDS011;53698;52.738;4.752;2022-07-25T04:24:11;11.93;;;3.47;;
66794;SDS011;53698;52.738;4.752;2022-07-25T04:26:36;5.70;;;3.42;;
66794;SDS011;53698;52.738;4.752;2022-07-25T04:29:01;4.30;;;3.40;;
66794;SDS011;53698;52.738;4.752;2022-07-25T04:31:27;5.32;;;3.45;;
66794;SDS011;53698;52.738;4.752;2022-07-25T04:33:53;6.20;;;3.25;;
66794;SDS011;53698;52.738;4.752;2022-07-25T04:36:18;7.22;;;3.42;;
66794;SDS011;53698;52.738;4.752;2022-07-25T04:38:44;4.70;;;3.22;;
66794;SDS011;53698;52.738;4.752;2022-07-25T04:41:09;8.43;;;3.70;;
66794;SDS011;53698;52.738;4.752;2022-07-25T04:43:34;5.30;;;3.63;;
66794;SDS011;53698;52.738;4.752;2022-07-25T04:46:00;4.82;;;3.60;;
66794;SDS011;53698;52.738;4.752;2022-07-25T04:48:25;4.55;;;3.60;;
66794;SDS011;53698;52.738;4.752;2022-07-25T04:50:51;8.52;;;3.63;;
66794;SDS011;53698;52.738;4.752;2022-07-25T04:53:16;4.00;;;3.38;;
66794;SDS011;53698;52.738;4.752;2022-07-25T04:55:42;7.88;;;3.20;;
66794;SDS011;53698;52.738;4.752;2022-07-25T04:58:07;3.95;;;2.70;;
66794;SDS011;53698;52.738;4.752;2022-07-25T05:00:32;6.47;;;3.17;;
66794;SDS011;53698;52.738;4.752;2022-07-25T05:02:58;3.70;;;3.28;;
66794;SDS011;53698;52.738;4.752;2022-07-25T05:05:24;5.40;;;3.22;;
66794;SDS011;53698;52.738;4.752;2022-07-25T05:07:50;5.90;;;3.00;;
66794;SDS011;53698;52.738;4.752;2022-07-25T05:10:20;4.03;;;2.78;;
66794;SDS011;53698;52.738;4.752;2022-07-25T05:12:45;5.15;;;3.30;;
66794;SDS011;53698;52.738;4.752;2022-07-25T05:15:11;4.43;;;2.90;;
66794;SDS011;53698;52.738;4.752;2022-07-25T05:17:36;4.95;;;2.95;;
66794;SDS011;53698;52.738;4.752;2022-07-25T05:20:02;2.55;;;2.35;;
66794;SDS011;53698;52.738;4.752;2022-07-25T05:22:27;5.65;;;2.88;;
66794;SDS011;53698;52.738;4.752;2022-07-25T05:24:53;3.38;;;2.47;;
66794;SDS011;53698;52.738;4.752;2022-07-25T05:27:18;4.65;;;2.85;;
66794;SDS011;53698;52.738;4.752;2022-07-25T05:29:44;2.92;;;2.30;;
66794;SDS011;53698;52.738;4.752;2022-07-25T05:32:09;3.83;;;2.38;;
66794;SDS011;53698;52.738;4.752;2022-07-25T05:34:34;5.22;;;2.45;;
66794;SDS011;53698;52.738;4.752;2022-07-25T05:37:00;4.80;;;2.60;;
66794;SDS011;53698;52.738;4.752;2022-07-25T05:39:25;4.38;;;2.17;;
66794;SDS011;53698;52.738;4.752;2022-07-25T05:41:50;3.22;;;2.05;;
66794;SDS011;53698;52.738;4.752;2022-07-25T05:44:16;6.38;;;2.25;;
66794;SDS011;53698;52.738;4.752;2022-07-25T05:46:41;4.20;;;1.98;;
66794;SDS011;53698;52.738;4.752;2022-07-25T05:49:06;3.28;;;2.28;;
66794;SDS011;53698;52.738;4.752;2022-07-25T05:51:32;4.53;;;2.22;;
66794;SDS011;53698;52.738;4.752;2022-07-25T05:53:57;3.00;;;2.33;;
66794;SDS011;53698;52.738;4.752;2022-07-25T05:56:22;3.65;;;2.05;;
66794;SDS011;53698;52.738;4.752;2022-07-25T05:58:48;4.88;;;2.35;;
66794;SDS011;53698;52.738;4.752;2022-07-25T06:01:14;5.88;;;1.80;;
66794;SDS011;53698;52.738;4.752;2022-07-25T06:03:40;2.22;;;1.83;;
66794;SDS011;53698;52.738;4.752;2022-07-25T06:06:06;5.95;;;2.00;;
66794;SDS011;53698;52.738;4.752;2022-07-25T06:08:33;5.47;;;1.92;;
66794;SDS011;53698;52.738;4.752;2022-07-25T06:10:59;3.58;;;1.90;;
66794;SDS011;53698;52.738;4.752;2022-07-25T06:13:26;6.47;;;2.10;;
66794;SDS011;53698;52.738;4.752;2022-07-25T06:15:51;9.25;;;2.20;;
66794;SDS011;53698;52.738;4.752;2022-07-25T06:18:17;6.50;;;2.38;;
66794;SDS011;53698;52.738;4.752;2022-07-25T06:20:43;12.02;;;2.90;;
66794;SDS011;53698;52.738;4.752;2022-07-25T06:23:08;6.28;;;2.35;;
66794;SDS011;53698;52.738;4.752;2022-07-25T06:25:33;7.43;;;2.30;;
66794;SDS011;53698;52.738;4.752;2022-07-25T06:27:59;8.65;;;2.40;;
66794;SDS011;53698;52.738;4.752;2022-07-25T06:30:25;7.60;;;2.47;;
66794;SDS011;53698;52.738;4.752;2022-07-25T06:32:50;7.15;;;2.40;;
66794;SDS011;53698;52.738;4.752;2022-07-25T06:35:16;7.47;;;2.28;;
66794;SDS011;53698;52.738;4.752;2022-07-25T06:37:42;5.50;;;2.40;;
66794;SDS011;53698;52.738;4.752;2022-07-25T06:40:07;9.45;;;3.03;;
66794;SDS011;53698;52.738;4.752;2022-07-25T06:42:37;11.93;;;2.75;;
66794;SDS011;53698;52.738;4.752;2022-07-25T06:45:03;6.20;;;2.05;;
66794;SDS011;53698;52.738;4.752;2022-07-25T06:47:30;10.20;;;3.47;;
66794;SDS011;53698;52.738;4.752;2022-07-25T06:49:56;11.13;;;2.75;;
66794;SDS011;53698;52.738;4.752;2022-07-25T06:52:21;10.73;;;2.25;;
66794;SDS011;53698;52.738;4.752;2022-07-25T06:54:46;7.05;;;2.95;;
66794;SDS011;53698;52.738;4.752;2022-07-25T06:57:12;12.40;;;3.10;;
66794;SDS011;53698;52.738;4.752;2022-07-25T06:59:37;10.07;;;2.63;;
66794;SDS011;53698;52.738;4.752;2022-07-25T07:02:02;13.95;;;2.63;;
66794;SDS011;53698;52.738;4.752;2022-07-25T07:04:28;10.00;;;2.70;;
66794;SDS011;53698;52.738;4.752;2022-07-25T07:06:53;14.13;;;3.00;;
66794;SDS011;53698;52.738;4.752;2022-07-25T07:09:18;9.82;;;2.55;;
66794;SDS011;53698;52.738;4.752;2022-07-25T07:11:44;17.45;;;3.70;;
66794;SDS011;53698;52.738;4.752;2022-07-25T07:14:09;14.15;;;2.90;;
66794;SDS011;53698;52.738;4.752;2022-07-25T07:16:34;18.15;;;3.28;;
66794;SDS011;53698;52.738;4.752;2022-07-25T07:19:00;12.30;;;3.35;;
66794;SDS011;53698;52.738;4.752;2022-07-25T07:21:26;14.02;;;3.17;;
66794;SDS011;53698;52.738;4.752;2022-07-25T07:23:51;12.95;;;2.90;;
66794;SDS011;53698;52.738;4.752;2022-07-25T07:26:16;11.60;;;2.78;;
66794;SDS011;53698;52.738;4.752;2022-07-25T07:28:42;12.18;;;2.45;;
66794;SDS011;53698;52.738;4.752;2022-07-25T07:31:07;11.38;;;2.53;;
66794;SDS011;53698;52.738;4.752;2022-07-25T07:33:33;8.93;;;2.67;;
66794;SDS011;53698;52.738;4.752;2022-07-25T07:35:59;13.02;;;2.20;;
66794;SDS011;53698;52.738;4.752;2022-07-25T07:38:25;8.48;;;2.15;;
66794;SDS011;53698;52.738;4.752;2022-07-25T07:40:51;18.52;;;2.83;;
66794;SDS011;53698;52.738;4.752;2022-07-25T07:43:17;12.88;;;2.72;;
66794;SDS011;53698;52.738;4.752;2022-07-25T07:45:43;10.23;;;2.55;;
66794;SDS011;53698;52.738;4.752;2022-07-25T07:48:09;16.00;;;3.20;;
66794;SDS011;53698;52.738;4.752;2022-07-25T07:50:34;10.65;;;2.70;;
66794;SDS011;53698;52.738;4.752;2022-07-25T07:53:00;11.68;;;2.85;;
66794;SDS011;53698;52.738;4.752;2022-07-25T07:55:26;10.55;;;2.50;;
66794;SDS011;53698;52.738;4.752;2022-07-25T07:58:18;12.65;;;2.85;;
66794;SDS011;53698;52.738;4.752;2022-07-25T08:00:45;11.75;;;2.70;;
66794;SDS011;53698;52.738;4.752;2022-07-25T08:03:18;10.85;;;2.70;;
66794;SDS011;53698;52.738;4.752;2022-07-25T08:05:44;11.60;;;2.80;;
66794;SDS011;53698;52.738;4.752;2022-07-25T08:08:12;8.93;;;2.92;;
66794;SDS011;53698;52.738;4.752;2022-07-25T08:10:40;14.90;;;2.90;;
66794;SDS011;53698;52.738;4.752;2022-07-25T08:13:12;20.17;;;3.13;;
66794;SDS011;53698;52.738;4.752;2022-07-25T08:15:42;14.20;;;2.75;;
66794;SDS011;53698;52.738;4.752;2022-07-25T08:18:09;13.15;;;3.00;;
66794;SDS011;53698;52.738;4.752;2022-07-25T08:20:34;12.50;;;3.03;;
66794;SDS011;53698;52.738;4.752;2022-07-25T08:22:59;22.90;;;3.30;;
66794;SDS011;53698;52.738;4.752;2022-07-25T08:25:25;16.30;;;2.88;;
66794;SDS011;53698;52.738;4.752;2022-07-25T08:27:51;11.30;;;3.10;;
66794;SDS011;53698;52.738;4.752;2022-07-25T08:30:17;7.40;;;2.25;;
66794;SDS011;53698;52.738;4.752;2022-07-25T08:35:16;11.57;;;2.78;;
66794;SDS011;53698;52.738;4.752;2022-07-25T08:37:43;9.43;;;2.97;;
66794;SDS011;53698;52.738;4.752;2022-07-25T08:40:09;10.25;;;2.55;;
66794;SDS011;53698;52.738;4.752;2022-07-25T08:42:36;10.65;;;2.55;;
66794;SDS011;53698;52.738;4.752;2022-07-25T08:45:02;18.38;;;2.90;;
66794;SDS011;53698;52.738;4.752;2022-07-25T08:47:29;11.05;;;2.30;;
66794;SDS011;53698;52.738;4.752;2022-07-25T08:49:56;15.00;;;3.13;;
66794;SDS011;53698;52.738;4.752;2022-07-25T08:52:22;13.35;;;2.90;;
66794;SDS011;53698;52.738;4.752;2022-07-25T08:54:48;12.10;;;2.78;;
66794;SDS011;53698;52.738;4.752;2022-07-25T08:57:15;14.80;;;3.38;;
66794;SDS011;53698;52.738;4.752;2022-07-25T08:59:41;11.18;;;2.33;;
66794;SDS011;53698;52.738;4.752;2022-07-25T09:02:11;15.05;;;2.75;;
66794;SDS011;53698;52.738;4.752;2022-07-25T09:04:37;9.68;;;2.78;;
66794;SDS011;53698;52.738;4.752;2022-07-25T09:07:03;10.75;;;2.78;;
66794;SDS011;53698;52.738;4.752;2022-07-25T09:09:29;12.40;;;2.83;;
66794;SDS011;53698;52.738;4.752;2022-07-25T09:11:57;11.65;;;2.78;;
66794;SDS011;53698;52.738;4.752;2022-07-25T09:14:22;10.70;;;2.47;;
66794;SDS011;53698;52.738;4.752;2022-07-25T09:16:48;10.25;;;2.78;;
66794;SDS011;53698;52.738;4.752;2022-07-25T09:19:14;11.00;;;2.53;;
66794;SDS011;53698;52.738;4.752;2022-07-25T09:21:42;14.00;;;2.70;;
66794;SDS011;53698;52.738;4.752;2022-07-25T09:24:09;10.95;;;2.70;;
66794;SDS011;53698;52.738;4.752;2022-07-25T09:26:46;14.02;;;2.90;;
66794;SDS011;53698;52.738;4.752;2022-07-25T09:29:20;19.10;;;3.03;;
66794;SDS011;53698;52.738;4.752;2022-07-25T09:31:50;10.18;;;2.90;;
66794;SDS011;53698;52.738;4.752;2022-07-25T09:34:28;11.48;;;2.60;;
66794;SDS011;53698;52.738;4.752;2022-07-25T09:36:54;10.65;;;3.00;;
66794;SDS011;53698;52.738;4.752;2022-07-25T09:39:20;13.57;;;3.33;;
66794;SDS011;53698;52.738;4.752;2022-07-25T09:41:45;10.57;;;2.85;;
66794;SDS011;53698;52.738;4.752;2022-07-25T09:46:42;10.65;;;3.40;;
66794;SDS011;53698;52.738;4.752;2022-07-25T09:49:07;15.98;;;3.80;;
66794;SDS011;53698;52.738;4.752;2022-07-25T09:51:33;12.60;;;3.03;;
66794;SDS011;53698;52.738;4.752;2022-07-25T09:53:59;12.07;;;3.17;;
66794;SDS011;53698;52.738;4.752;2022-07-25T09:56:24;16.52;;;4.00;;
66794;SDS011;53698;52.738;4.752;2022-07-25T09:58:49;16.73;;;3.63;;
66794;SDS011;53698;52.738;4.752;2022-07-25T10:01:17;14.32;;;3.80;;
66794;SDS011;53698;52.738;4.752;2022-07-25T10:03:56;19.33;;;3.88;;
66794;SDS011;53698;52.738;4.752;2022-07-25T10:06:40;19.30;;;3.80;;
66794;SDS011;53698;52.738;4.752;2022-07-25T10:09:13;14.90;;;3.67;;
66794;SDS011;53698;52.738;4.752;2022-07-25T10:11:40;14.32;;;3.60;;
66794;SDS011;53698;52.738;4.752;2022-07-25T10:14:25;12.75;;;3.80;;
66794;SDS011;53698;52.738;4.752;2022-07-25T10:16:51;19.25;;;3.97;;
66794;SDS011;53698;52.738;4.752;2022-07-25T10:19:33;14.38;;;3.65;;
66794;SDS011;53698;52.738;4.752;2022-07-25T10:22:09;20.00;;;4.13;;
66794;SDS011;53698;52.738;4.752;2022-07-25T10:24:36;14.90;;;4.60;;
66794;SDS011;53698;52.738;4.752;2022-07-25T10:27:10;17.60;;;4.03;;
66794;SDS011;53698;52.738;4.752;2022-07-25T10:29:47;15.02;;;3.75;;
66794;SDS011;53698;52.738;4.752;2022-07-25T10:32:16;21.13;;;4.30;;
66794;SDS011;53698;52.738;4.752;2022-07-25T10:34:50;18.27;;;4.70;;
66794;SDS011;53698;52.738;4.752;2022-07-25T10:37:17;14.77;;;4.00;;
66794;SDS011;53698;52.738;4.752;2022-07-25T10:39:43;19.75;;;4.30;;
66794;SDS011;53698;52.738;4.752;2022-07-25T10:42:13;19.88;;;4.20;;
66794;SDS011;53698;52.738;4.752;2022-07-25T10:44:44;16.75;;;4.53;;
66794;SDS011;53698;52.738;4.752;2022-07-25T10:47:12;17.65;;;4.40;;
66794;SDS011;53698;52.738;4.752;2022-07-25T10:49:40;21.30;;;4.20;;
66794;SDS011;53698;52.738;4.752;2022-07-25T10:52:06;15.15;;;4.45;;
66794;SDS011;53698;52.738;4.752;2022-07-25T10:54:38;14.48;;;4.05;;
66794;SDS011;53698;52.738;4.752;2022-07-25T10:57:05;13.77;;;4.65;;
66794;SDS011;53698;52.738;4.752;2022-07-25T10:59:38;14.73;;;4.78;;
66794;SDS011;53698;52.738;4.752;2022-07-25T11:02:04;19.65;;;4.03;;
66794;SDS011;53698;52.738;4.752;2022-07-25T11:04:31;12.15;;;3.92;;
66794;SDS011;53698;52.738;4.752;2022-07-25T11:07:05;15.38;;;3.90;;
66794;SDS011;53698;52.738;4.752;2022-07-25T11:09:32;17.38;;;4.32;;
66794;SDS011;53698;52.738;4.752;2022-07-25T11:11:58;17.60;;;4.38;;
66794;SDS011;53698;52.738;4.752;2022-07-25T11:14:34;17.58;;;4.47;;
66794;SDS011;53698;52.738;4.752;2022-07-25T11:17:14;16.73;;;3.90;;
66794;SDS011;53698;52.738;4.752;2022-07-25T11:19:51;15.43;;;4.55;;
66794;SDS011;53698;52.738;4.752;2022-07-25T11:22:19;15.70;;;4.55;;
66794;SDS011;53698;52.738;4.752;2022-07-25T11:24:44;15.02;;;5.40;;
66794;SDS011;53698;52.738;4.752;2022-07-25T11:27:12;17.40;;;4.50;;
66794;SDS011;53698;52.738;4.752;2022-07-25T11:29:44;14.80;;;4.70;;
66794;SDS011;53698;52.738;4.752;2022-07-25T11:32:10;22.63;;;5.05;;
66794;SDS011;53698;52.738;4.752;2022-07-25T11:35:09;16.38;;;4.32;;
66794;SDS011;53698;52.738;4.752;2022-07-25T11:37:28;19.63;;;4.30;;
66794;SDS011;53698;52.738;4.752;2022-07-25T11:39:59;15.02;;;3.92;;
66794;SDS011;53698;52.738;4.752;2022-07-25T11:42:24;17.02;;;4.30;;
66794;SDS011;53698;52.738;4.752;2022-07-25T11:44:51;17.50;;;4.20;;
66794;SDS011;53698;52.738;4.752;2022-07-25T11:47:25;18.88;;;4.35;;
66794;SDS011;53698;52.738;4.752;2022-07-25T11:49:54;17.50;;;4.65;;
66794;SDS011;53698;52.738;4.752;2022-07-25T11:52:33;15.25;;;4.25;;
66794;SDS011;53698;52.738;4.752;2022-07-25T11:55:04;18.80;;;3.80;;
66794;SDS011;53698;52.738;4.752;2022-07-25T11:57:35;19.85;;;4.50;;
66794;SDS011;53698;52.738;4.752;2022-07-25T12:00:03;21.25;;;4.72;;
66794;SDS011;53698;52.738;4.752;2022-07-25T12:02:35;18.23;;;4.30;;
66794;SDS011;53698;52.738;4.752;2022-07-25T12:05:04;15.55;;;4.43;;
66794;SDS011;53698;52.738;4.752;2022-07-25T12:10:17;20.00;;;3.72;;
66794;SDS011;53698;52.738;4.752;2022-07-25T12:12:48;14.65;;;4.05;;
66794;SDS011;53698;52.738;4.752;2022-07-25T12:15:19;17.88;;;4.55;;
66794;SDS011;53698;52.738;4.752;2022-07-25T12:17:53;15.25;;;4.20;;
66794;SDS011;53698;52.738;4.752;2022-07-25T12:22:53;14.93;;;4.30;;
66794;SDS011;53698;52.738;4.752;2022-07-25T12:25:21;15.23;;;4.32;;
66794;SDS011;53698;52.738;4.752;2022-07-25T12:27:48;12.80;;;3.60;;
66794;SDS011;53698;52.738;4.752;2022-07-25T12:30:14;9.57;;;3.28;;
66794;SDS011;53698;52.738;4.752;2022-07-25T12:32:40;17.38;;;3.45;;
66794;SDS011;53698;52.738;4.752;2022-07-25T12:35:06;10.05;;;3.33;;
66794;SDS011;53698;52.738;4.752;2022-07-25T12:37:33;15.80;;;3.45;;
66794;SDS011;53698;52.738;4.752;2022-07-25T12:39:58;10.60;;;2.78;;
66794;SDS011;53698;52.738;4.752;2022-07-25T12:42:24;12.00;;;2.75;;
66794;SDS011;53698;52.738;4.752;2022-07-25T12:44:51;13.38;;;3.50;;
66794;SDS011;53698;52.738;4.752;2022-07-25T12:47:17;11.27;;;2.80;;
66794;SDS011;53698;52.738;4.752;2022-07-25T12:49:42;10.68;;;2.80;;
66794;SDS011;53698;52.738;4.752;2022-07-25T12:52:07;15.10;;;3.83;;
66794;SDS011;53698;52.738;4.752;2022-07-25T12:54:33;13.73;;;3.58;;
66794;SDS011;53698;52.738;4.752;2022-07-25T12:56:58;13.13;;;3.75;;
66794;SDS011;53698;52.738;4.752;2022-07-25T12:59:24;14.85;;;4.07;;
66794;SDS011;53698;52.738;4.752;2022-07-25T13:01:49;16.58;;;4.20;;
66794;SDS011;53698;52.738;4.752;2022-07-25T13:04:15;16.13;;;4.53;;
66794;SDS011;53698;52.738;4.752;2022-07-25T13:06:40;15.38;;;3.30;;
66794;SDS011;53698;52.738;4.752;2022-07-25T13:09:06;17.13;;;3.90;;
66794;SDS011;53698;52.738;4.752;2022-07-25T13:11:31;14.85;;;3.78;;
66794;SDS011;53698;52.738;4.752;2022-07-25T13:13:57;16.95;;;3.63;;
66794;SDS011;53698;52.738;4.752;2022-07-25T13:16:22;17.88;;;3.42;;
66794;SDS011;53698;52.738;4.752;2022-07-25T13:18:47;13.30;;;3.60;;
66794;SDS011;53698;52.738;4.752;2022-07-25T13:21:13;15.80;;;3.22;;
66794;SDS011;53698;52.738;4.752;2022-07-25T13:23:39;14.93;;;3.25;;
66794;SDS011;53698;52.738;4.752;2022-07-25T13:26:05;14.98;;;3.28;;
66794;SDS011;53698;52.738;4.752;2022-07-25T13:28:31;12.80;;;3.28;;
66794;SDS011;53698;52.738;4.752;2022-07-25T13:30:57;12.82;;;2.80;;
66794;SDS011;53698;52.738;4.752;2022-07-25T13:33:22;15.52;;;3.50;;
66794;SDS011;53698;52.738;4.752;2022-07-25T13:35:48;9.18;;;2.80;;
66794;SDS011;53698;52.738;4.752;2022-07-25T13:38:13;17.83;;;3.78;;
66794;SDS011;53698;52.738;4.752;2022-07-25T13:40:39;12.63;;;3.33;;
66794;SDS011;53698;52.738;4.752;2022-07-25T13:43:08;12.45;;;2.90;;
66794;SDS011;53698;52.738;4.752;2022-07-25T13:45:34;19.05;;;3.30;;
66794;SDS011;53698;52.738;4.752;2022-07-25T13:47:59;13.40;;;3.50;;
66794;SDS011;53698;52.738;4.752;2022-07-25T13:50:25;14.55;;;3.03;;
66794;SDS011;53698;52.738;4.752;2022-07-25T13:52:50;20.08;;;3.92;;
66794;SDS011;53698;52.738;4.752;2022-07-25T13:55:15;14.30;;;3.03;;
66794;SDS011;53698;52.738;4.752;2022-07-25T13:57:43;16.58;;;4.70;;
66794;SDS011;53698;52.738;4.752;2022-07-25T14:00:08;11.73;;;3.33;;
66794;SDS011;53698;52.738;4.752;2022-07-25T14:02:35;12.68;;;3.05;;
66794;SDS011;53698;52.738;4.752;2022-07-25T14:05:00;17.05;;;3.03;;
66794;SDS011;53698;52.738;4.752;2022-07-25T14:07:25;18.02;;;3.65;;
66794;SDS011;53698;52.738;4.752;2022-07-25T14:09:51;11.23;;;2.83;;
66794;SDS011;53698;52.738;4.752;2022-07-25T14:12:16;14.68;;;2.95;;
66794;SDS011;53698;52.738;4.752;2022-07-25T14:14:41;9.50;;;2.85;;
66794;SDS011;53698;52.738;4.752;2022-07-25T14:17:07;8.43;;;2.80;;
66794;SDS011;53698;52.738;4.752;2022-07-25T14:19:32;11.48;;;2.47;;
66794;SDS011;53698;52.738;4.752;2022-07-25T14:21:57;13.43;;;3.30;;
66794;SDS011;53698;52.738;4.752;2022-07-25T14:24:23;12.50;;;2.60;;
66794;SDS011;53698;52.738;4.752;2022-07-25T14:26:48;12.75;;;2.80;;
66794;SDS011;53698;52.738;4.752;2022-07-25T14:29:13;10.05;;;2.85;;
66794;SDS011;53698;52.738;4.752;2022-07-25T14:31:39;11.77;;;3.30;;
66794;SDS011;53698;52.738;4.752;2022-07-25T14:34:04;10.88;;;2.80;;
66794;SDS011;53698;52.738;4.752;2022-07-25T14:36:30;12.60;;;3.28;;
66794;SDS011;53698;52.738;4.752;2022-07-25T14:38:55;14.10;;;3.22;;
66794;SDS011;53698;52.738;4.752;2022-07-25T14:41:21;13.07;;;3.58;;
66794;SDS011;53698;52.738;4.752;2022-07-25T14:43:46;17.98;;;3.75;;
66794;SDS011;53698;52.738;4.752;2022-07-25T14:46:12;14.95;;;3.35;;
66794;SDS011;53698;52.738;4.752;2022-07-25T14:48:37;15.38;;;3.55;;